createdAt,value
2022-08-09T00:00:21.135Z,49.22
2022-08-09T00:02:49.917Z,49.76
2022-08-09T00:06:19.202Z,50.15
2022-08-09T00:08:11.337Z,49.75
2022-08-09T00:10:41.412Z,49.34
2022-08-09T00:13:16.706Z,49.52
2022-08-09T00:16:00.141Z,48.83
2022-08-09T00:18:34.935Z,47.66
2022-08-09T00:21:08.695Z,48.49
2022-08-09T00:23:54.875Z,48.09
2022-08-09T00:26:29.861Z,47.89
2022-08-09T00:29:12.458Z,47.57
2022-08-09T00:32:00.027Z,49.26
2022-08-09T00:34:28.509Z,50.08
2022-08-09T00:37:00.876Z,50.78
2022-08-09T00:40:10.247Z,51.62
2022-08-09T00:44:11.608Z,52.37
2022-08-09T00:45:15.958Z,53.68
2022-08-09T00:47:44.227Z,54.06
2022-08-09T00:50:14.335Z,54.23
2022-08-09T00:52:42.559Z,54.23
2022-08-09T00:55:32.583Z,55.69
2022-08-09T00:57:59.407Z,56.28
2022-08-09T01:00:28.236Z,56.57
2022-08-09T01:03:13.708Z,56.12
2022-08-09T01:06:03.924Z,56.05
2022-08-09T01:09:11.681Z,56.59
2022-08-09T01:11:59.003Z,56.90
2022-08-09T01:14:32.191Z,58.57
2022-08-09T01:17:10.876Z,58.13
2022-08-09T01:19:57.134Z,59.27
2022-08-09T01:24:03.676Z,60.30
2022-08-09T01:26:36.174Z,59.84
2022-08-09T01:29:06.397Z,59.93
2022-08-09T01:32:30.182Z,61.10
2022-08-09T01:34:26.654Z,61.13
2022-08-09T01:36:56.820Z,61.15
2022-08-09T01:39:27.391Z,60.73
2022-08-09T01:42:00.572Z,61.75
2022-08-09T01:44:31.527Z,61.93
2022-08-09T01:47:01.458Z,63.16
2022-08-09T01:49:38.818Z,62.52
2022-08-09T01:52:14.601Z,62.56
2022-08-09T01:54:48.597Z,61.99
2022-08-09T01:57:27.904Z,61.01
2022-08-09T02:00:08.980Z,60.75
2022-08-09T02:02:51.742Z,61.76
2022-08-09T02:05:35.534Z,60.10
2022-08-09T02:08:41.015Z,60.26
2022-08-09T02:11:03.705Z,60.54
2022-08-09T02:14:06.260Z,60.37
2022-08-09T02:16:53.243Z,60.81
2022-08-09T02:19:24.572Z,61.22
2022-08-09T02:22:14.060Z,62.04
2022-08-09T02:24:46.439Z,62.25
2022-08-09T02:27:27.490Z,62.11
2022-08-09T02:30:11.579Z,62.39
2022-08-09T02:32:43.966Z,62.47
2022-08-09T02:35:25.705Z,62.87
2022-08-09T02:38:11.483Z,63.35
2022-08-09T02:40:50.213Z,63.24
2022-08-09T02:43:21.076Z,63.03
2022-08-09T02:45:50.667Z,62.87
2022-08-09T02:48:30.759Z,63.45
2022-08-09T02:51:01.657Z,63.97
2022-08-09T02:53:37.739Z,62.74
2022-08-09T02:56:07.260Z,62.13
2022-08-09T02:58:37.858Z,63.70
2022-08-09T03:01:11.325Z,64.61
2022-08-09T03:04:16.526Z,65.09
2022-08-09T03:06:38.234Z,64.04
2022-08-09T03:09:09.041Z,65.41
2022-08-09T03:12:05.340Z,65.65
2022-08-09T03:14:26.681Z,66.21
2022-08-09T03:16:58.321Z,67.35
2022-08-09T03:19:59.278Z,67.84
2022-08-09T03:22:41.523Z,69.09
2022-08-09T03:25:06.285Z,68.52
2022-08-09T03:27:51.953Z,67.79
2022-08-09T03:30:29.197Z,67.68
2022-08-09T03:33:13.122Z,68.97
2022-08-09T03:36:15.795Z,69.61
2022-08-09T03:38:42.498Z,69.36
2022-08-09T03:41:14.731Z,68.21
2022-08-09T03:43:43.437Z,70.22
2022-08-09T03:46:30.783Z,71.23
2022-08-09T03:49:04.377Z,73.38
2022-08-09T03:51:55.222Z,74.07
2022-08-09T03:54:34.548Z,74.17
2022-08-09T03:57:17.916Z,73.56
2022-08-09T03:59:54.160Z,74.64
2022-08-09T04:02:27.996Z,75.78
2022-08-09T04:05:05.782Z,74.65
2022-08-09T04:07:52.502Z,75.25
2022-08-09T04:10:29.027Z,74.60
2022-08-09T04:13:04.223Z,74.62
2022-08-09T04:16:17.563Z,75.03
2022-08-09T04:18:21.436Z,74.54
2022-08-09T04:20:49.894Z,73.56
2022-08-09T04:23:23.418Z,73.24
2022-08-09T04:25:53.438Z,70.86
2022-08-09T04:28:33.058Z,70.74
2022-08-09T04:31:05.666Z,70.32
2022-08-09T04:33:47.578Z,68.56
2022-08-09T04:36:23.530Z,69.17
2022-08-09T04:38:51.636Z,67.05
2022-08-09T04:41:19.712Z,66.73
2022-08-09T04:44:06.241Z,66.44
2022-08-09T04:46:57.655Z,66.83
2022-08-09T04:49:40.840Z,67.43
2022-08-09T04:52:12.078Z,68.26
2022-08-09T04:54:48.174Z,68.20
2022-08-09T04:57:15.523Z,68.09
2022-08-09T04:59:50.322Z,68.35
2022-08-09T05:02:17.641Z,67.97
2022-08-09T05:04:47.244Z,68.50
2022-08-09T05:07:19.376Z,68.61
2022-08-09T05:09:49.826Z,66.25
2022-08-09T05:12:17.647Z,65.13
2022-08-09T05:14:45.904Z,64.41
2022-08-09T05:18:36.820Z,63.60
2022-08-09T05:20:00.397Z,65.05
2022-08-09T05:22:34.929Z,63.71
2022-08-09T05:25:07.211Z,62.79
2022-08-09T05:27:45.381Z,62.88
2022-08-09T05:30:17.684Z,60.77
2022-08-09T05:32:50.618Z,58.95
2022-08-09T05:35:18.287Z,58.36
2022-08-09T05:37:50.315Z,57.68
2022-08-09T05:40:19.746Z,57.23
2022-08-09T05:42:49.922Z,56.79
2022-08-09T05:45:18.084Z,56.05
2022-08-09T05:47:52.135Z,56.76
2022-08-09T05:50:44.163Z,57.11
2022-08-09T05:53:21.802Z,55.47
2022-08-09T05:55:59.332Z,54.10
2022-08-09T05:58:26.818Z,53.63
2022-08-09T06:00:54.369Z,56.01
2022-08-09T06:03:24.505Z,54.62
2022-08-09T06:06:04.680Z,53.14
2022-08-09T06:08:33.963Z,50.93
2022-08-09T06:11:01.464Z,50.74
2022-08-09T06:13:44.543Z,50.45
2022-08-09T06:16:13.316Z,50.42
2022-08-09T06:18:40.549Z,48.91
2022-08-09T06:21:08.242Z,47.80
2022-08-09T06:23:57.995Z,47.11
2022-08-09T06:26:28.267Z,46.78
2022-08-09T06:29:00.944Z,47.92
2022-08-09T06:31:40.390Z,47.87
2022-08-09T06:34:22.569Z,47.68
2022-08-09T06:36:57.472Z,47.80
2022-08-09T06:39:48.804Z,46.45
2022-08-09T06:42:16.888Z,48.06
2022-08-09T06:44:51.800Z,46.78
2022-08-09T06:47:22.262Z,46.09
2022-08-09T06:50:14.782Z,46.39
2022-08-09T06:52:47.295Z,45.40
2022-08-09T06:55:22.477Z,43.74
2022-08-09T06:58:02.814Z,44.58
2022-08-09T07:00:49.457Z,43.37
2022-08-09T07:03:28.113Z,44.47
2022-08-09T07:06:04.432Z,42.47
2022-08-09T07:08:33.760Z,42.08
2022-08-09T07:11:03.541Z,42.58
2022-08-09T07:13:31.306Z,42.01
2022-08-09T07:16:42.295Z,40.39
2022-08-09T07:19:00.199Z,41.04
2022-08-09T07:21:27.549Z,40.00
2022-08-09T07:23:58.820Z,38.91
2022-08-09T07:26:26.504Z,39.67
2022-08-09T07:29:08.822Z,38.24
2022-08-09T07:31:45.314Z,38.11
2022-08-09T07:34:19.568Z,35.59
2022-08-09T07:36:49.526Z,35.43
2022-08-09T07:39:20.622Z,34.33
2022-08-09T07:42:05.359Z,34.27
2022-08-09T07:44:51.133Z,35.39
2022-08-09T07:47:20.900Z,35.07
2022-08-09T07:50:05.270Z,34.05
2022-08-09T07:52:36.681Z,34.08
2022-08-09T07:55:09.547Z,31.93
2022-08-09T07:57:37.146Z,33.94
2022-08-09T08:00:20.853Z,32.92
2022-08-09T08:03:04.487Z,33.18
2022-08-09T08:05:54.324Z,33.13
2022-08-09T08:09:01.719Z,31.58
2022-08-09T08:12:10.305Z,32.41
2022-08-09T08:13:56.659Z,32.31
2022-08-09T08:16:29.976Z,31.55
2022-08-09T08:18:59.736Z,30.52
2022-08-09T08:21:31.201Z,31.87
2022-08-09T08:24:00.948Z,30.45
2022-08-09T08:26:54.962Z,29.41
2022-08-09T08:29:28.625Z,30.14
2022-08-09T08:32:07.234Z,29.41
2022-08-09T08:34:39.781Z,30.02
2022-08-09T08:37:15.536Z,29.90
2022-08-09T08:39:44.567Z,29.86
2022-08-09T08:42:12.320Z,30.35
2022-08-09T08:44:41.813Z,31.24
2022-08-09T08:47:12.889Z,28.08
2022-08-09T08:49:46.613Z,29.08
2022-08-09T08:52:48.591Z,29.91
2022-08-09T08:55:05.397Z,29.03
2022-08-09T08:57:34.709Z,24.18
2022-08-09T09:00:12.608Z,25.39
2022-08-09T09:02:49.975Z,25.19
2022-08-09T09:05:33.083Z,24.43
2022-08-09T09:08:30.710Z,25.27
2022-08-09T09:11:04.062Z,23.52
2022-08-09T09:13:54.836Z,21.59
2022-08-09T09:16:30.836Z,23.25
2022-08-09T09:19:37.732Z,20.55
2022-08-09T09:22:07.747Z,22.32
2022-08-09T09:24:49.264Z,21.16
2022-08-09T09:28:05.037Z,21.76
2022-08-09T09:30:26.159Z,23.07
2022-08-09T09:33:16.054Z,22.22
2022-08-09T09:36:01.537Z,22.60
2022-08-09T09:38:56.878Z,22.43
2022-08-09T09:41:26.391Z,22.10
2022-08-09T09:44:12.543Z,21.96
2022-08-09T09:46:51.350Z,21.01
2022-08-09T09:49:56.202Z,22.35
2022-08-09T09:52:33.756Z,23.93
2022-08-09T09:55:27.818Z,22.95
2022-08-09T09:58:16.630Z,23.90
2022-08-09T10:00:58.993Z,23.77
2022-08-09T10:03:57.817Z,24.63
2022-08-09T10:06:42.670Z,25.12
2022-08-09T10:09:22.342Z,24.51
2022-08-09T10:12:12.020Z,25.28
2022-08-09T10:14:47.726Z,25.37
2022-08-09T10:17:39.740Z,25.18
2022-08-09T10:20:32.942Z,25.92
2022-08-09T10:23:28.821Z,27.45
2022-08-09T10:26:06.585Z,25.70
2022-08-09T10:28:41.146Z,24.61
2022-08-09T10:34:10.506Z,24.62
2022-08-09T10:36:45.536Z,24.21
2022-08-09T10:39:16.141Z,25.67
2022-08-09T10:41:47.482Z,24.76
2022-08-09T10:44:18.522Z,23.86
2022-08-09T10:48:13.482Z,23.05
2022-08-09T10:49:57.548Z,24.11
2022-08-09T10:52:46.227Z,23.99
2022-08-09T10:55:24.831Z,22.75
2022-08-09T10:57:55.508Z,22.84
2022-08-09T11:00:30.157Z,24.25
2022-08-09T11:03:11.956Z,23.55
2022-08-09T11:06:18.684Z,23.26
2022-08-09T11:08:53.475Z,23.63
2022-08-09T11:11:23.412Z,23.78
2022-08-09T11:14:32.068Z,22.55
2022-08-09T11:16:59.997Z,22.56
2022-08-09T11:20:12.151Z,23.22
2022-08-09T11:22:44.762Z,23.04
2022-08-09T11:25:25.771Z,24.24
2022-08-09T11:28:09.255Z,23.14
2022-08-09T11:30:45.919Z,23.44
2022-08-09T11:33:19.386Z,22.86
2022-08-09T11:35:57.608Z,22.71
2022-08-09T11:38:34.902Z,23.57
2022-08-09T11:41:38.536Z,22.89
2022-08-09T11:44:09.453Z,23.10
2022-08-09T11:46:53.732Z,23.67
2022-08-09T11:50:55.104Z,22.83
2022-08-09T11:53:57.510Z,23.05
2022-08-09T11:56:02.908Z,23.26
2022-08-09T11:58:32.938Z,23.78
2022-08-09T12:01:08.724Z,24.00
2022-08-09T12:03:57.045Z,24.47
2022-08-09T12:06:32.428Z,23.41
2022-08-09T12:09:19.113Z,22.67
2022-08-09T12:12:28.533Z,22.42
2022-08-09T12:15:04.095Z,21.85
2022-08-09T12:17:57.622Z,21.22
2022-08-09T12:20:34.675Z,21.33
2022-08-09T12:23:04.707Z,21.43
2022-08-09T12:25:37.563Z,20.76
2022-08-09T12:28:59.207Z,20.08
2022-08-09T12:31:10.691Z,20.42
2022-08-09T12:33:59.442Z,19.67
2022-08-09T12:36:32.136Z,21.76
2022-08-09T12:39:01.793Z,21.47
2022-08-09T12:41:39.774Z,22.10
2022-08-09T12:44:10.325Z,21.31
2022-08-09T12:46:48.823Z,22.45
2022-08-09T12:49:18.517Z,22.72
2022-08-09T12:52:01.578Z,21.40
2022-08-09T12:55:00.595Z,20.18
2022-08-09T12:57:46.352Z,20.06
2022-08-09T13:00:25.318Z,19.31
2022-08-09T13:02:57.339Z,19.87
2022-08-09T13:05:52.373Z,20.29
2022-08-09T13:08:40.442Z,21.50
2022-08-09T13:11:23.052Z,21.43
2022-08-09T13:14:42.803Z,21.66
2022-08-09T13:16:50.618Z,22.43
2022-08-09T13:20:07.342Z,21.65
2022-08-09T13:22:38.385Z,22.61
2022-08-09T13:25:07.914Z,22.96
2022-08-09T13:27:54.560Z,24.37
2022-08-09T13:30:50.291Z,25.12
2022-08-09T13:33:23.536Z,25.61
2022-08-09T13:36:24.233Z,26.03
2022-08-09T13:38:57.609Z,26.20
2022-08-09T13:41:57.505Z,25.78
2022-08-09T13:44:17.030Z,25.01
2022-08-09T13:47:29.012Z,24.33
2022-08-09T13:49:39.831Z,23.87
2022-08-09T13:52:24.875Z,23.57
2022-08-09T13:54:59.369Z,23.08
2022-08-09T13:57:40.482Z,22.58
2022-08-09T14:00:17.209Z,22.63
2022-08-09T14:03:16.590Z,23.47
2022-08-09T14:05:58.174Z,23.58
2022-08-09T14:08:28.268Z,23.83
2022-08-09T14:10:56.440Z,23.81
2022-08-09T14:13:28.198Z,24.93
2022-08-09T14:16:16.884Z,24.64
2022-08-09T14:18:49.399Z,24.27
2022-08-09T14:21:21.074Z,25.03
2022-08-09T14:23:54.820Z,25.53
2022-08-09T14:26:32.670Z,25.00
2022-08-09T14:29:07.875Z,25.77
2022-08-09T14:31:54.715Z,25.82
2022-08-09T14:34:31.443Z,26.52
2022-08-09T14:37:07.567Z,26.26
2022-08-09T14:39:40.032Z,24.93
2022-08-09T14:42:31.002Z,24.55
2022-08-09T14:46:57.242Z,24.13
2022-08-09T14:47:58.055Z,22.69
2022-08-09T14:50:30.711Z,21.83
2022-08-09T14:52:59.599Z,22.20
2022-08-09T14:55:29.069Z,21.21
2022-08-09T14:58:02.957Z,21.21
2022-08-09T15:00:35.219Z,22.17
2022-08-09T15:03:06.823Z,21.19
2022-08-09T15:05:34.541Z,21.99
2022-08-09T15:08:05.640Z,22.25
2022-08-09T15:10:34.965Z,21.90
2022-08-09T15:13:04.921Z,23.74
2022-08-09T15:15:39.222Z,24.86
2022-08-09T15:18:12.401Z,25.25
2022-08-09T15:21:57.067Z,24.95
2022-08-09T15:24:03.094Z,25.17
2022-08-09T15:26:18.864Z,23.73
2022-08-09T15:28:55.955Z,24.37
2022-08-09T15:31:36.075Z,24.43
2022-08-09T15:34:17.574Z,23.87
2022-08-09T15:36:58.569Z,25.30
2022-08-09T15:39:34.862Z,24.39
2022-08-09T15:42:14.827Z,25.78
2022-08-09T15:44:42.528Z,25.95
2022-08-09T15:47:13.981Z,26.03
2022-08-09T15:50:00.610Z,25.59
2022-08-09T15:52:29.820Z,26.61
2022-08-09T15:54:57.755Z,26.16
2022-08-09T15:57:35.835Z,27.18
2022-08-09T16:00:21.885Z,27.38
2022-08-09T16:02:54.903Z,30.50
2022-08-09T16:05:47.328Z,29.02
2022-08-09T16:08:29.708Z,29.32
2022-08-09T16:11:02.499Z,29.53
2022-08-09T16:14:05.482Z,29.28
2022-08-09T16:16:19.378Z,29.92
2022-08-09T16:18:47.949Z,30.29
2022-08-09T16:21:25.054Z,29.80
2022-08-09T16:24:02.057Z,29.58
2022-08-09T16:26:36.284Z,29.46
2022-08-09T16:29:11.191Z,29.16
2022-08-09T16:32:18.669Z,28.38
2022-08-09T16:34:55.465Z,27.71
2022-08-09T16:37:18.906Z,28.21
2022-08-09T16:39:48.186Z,28.54
2022-08-09T16:42:33.574Z,28.11
2022-08-09T16:45:00.999Z,29.70
2022-08-09T16:48:43.171Z,29.22
2022-08-09T16:50:29.302Z,29.49
2022-08-09T16:53:00.742Z,30.01
2022-08-09T16:55:31.524Z,29.59
2022-08-09T16:58:16.932Z,28.58
2022-08-09T17:00:46.596Z,28.92
2022-08-09T17:03:21.522Z,29.09
2022-08-09T17:06:07.078Z,28.11
2022-08-09T17:08:58.840Z,28.91
2022-08-09T17:11:41.043Z,29.38
2022-08-09T17:14:26.238Z,29.46
2022-08-09T17:17:03.079Z,28.88
2022-08-09T17:19:46.416Z,29.92
2022-08-09T17:22:15.189Z,29.28
2022-08-09T17:24:47.461Z,28.86
2022-08-09T17:27:21.148Z,29.07
2022-08-09T17:29:48.502Z,29.72
2022-08-09T17:32:20.436Z,29.98
2022-08-09T17:35:03.874Z,29.79
2022-08-09T17:38:14.380Z,30.24
2022-08-09T17:40:29.838Z,31.21
2022-08-09T17:43:03.287Z,30.94
2022-08-09T17:46:03.011Z,31.03
2022-08-09T17:48:29.221Z,31.81
2022-08-09T17:51:00.930Z,31.75
2022-08-09T17:53:42.996Z,32.08
2022-08-09T17:56:11.094Z,32.48
2022-08-09T17:58:38.780Z,32.42
2022-08-09T18:01:15.356Z,32.62
2022-08-09T18:03:50.436Z,32.53
2022-08-09T18:06:30.932Z,32.31
2022-08-09T18:09:03.430Z,33.04
2022-08-09T18:11:47.130Z,33.36
2022-08-09T18:14:22.522Z,33.09
2022-08-09T18:16:50.340Z,33.58
2022-08-09T18:20:55.555Z,33.78
2022-08-09T18:22:13.275Z,32.98
2022-08-09T18:24:44.395Z,33.36
2022-08-09T18:27:49.068Z,33.43
2022-08-09T18:30:42.198Z,33.58
2022-08-09T18:32:54.078Z,33.51
2022-08-09T18:35:58.014Z,33.94
2022-08-09T18:38:11.782Z,33.60
2022-08-09T18:40:40.672Z,33.25
2022-08-09T18:43:08.946Z,33.36
2022-08-09T18:46:47.569Z,33.32
2022-08-09T18:48:25.561Z,33.64
2022-08-09T18:50:58.004Z,34.08
2022-08-09T18:53:26.148Z,34.30
2022-08-09T18:56:09.027Z,33.95
2022-08-09T18:58:36.514Z,33.14
2022-08-09T19:01:06.646Z,34.54
2022-08-09T19:03:54.615Z,33.32
2022-08-09T19:06:23.833Z,33.60
2022-08-09T19:09:03.253Z,33.71
2022-08-09T19:11:37.506Z,33.71
2022-08-09T19:14:07.091Z,34.17
2022-08-09T19:16:35.950Z,34.09
2022-08-09T19:19:21.388Z,33.53
2022-08-09T19:22:06.883Z,34.18
2022-08-09T19:25:07.659Z,34.11
2022-08-09T19:27:23.909Z,33.96
2022-08-09T19:30:22.730Z,33.73
2022-08-09T19:32:44.261Z,33.90
2022-08-09T19:35:11.598Z,34.15
2022-08-09T19:37:56.202Z,34.06
2022-08-09T19:40:34.087Z,35.13
2022-08-09T19:43:05.359Z,34.74
2022-08-09T19:45:39.050Z,35.01
2022-08-09T19:48:09.546Z,35.65
2022-08-09T19:50:50.477Z,35.20
2022-08-09T19:53:21.871Z,35.13
2022-08-09T19:56:03.205Z,36.07
2022-08-09T19:58:34.959Z,36.32
2022-08-09T20:01:03.229Z,35.53
2022-08-09T20:04:10.620Z,36.24
2022-08-09T20:06:22.291Z,36.71
2022-08-09T20:08:57.331Z,37.55
2022-08-09T20:11:26.855Z,36.92
2022-08-09T20:13:55.909Z,38.36
2022-08-09T20:16:34.221Z,39.04
2022-08-09T20:19:47.852Z,38.34
2022-08-09T20:21:57.382Z,37.56
2022-08-09T20:24:29.467Z,36.99
2022-08-09T20:27:07.890Z,37.95
2022-08-09T20:29:39.594Z,39.27
2022-08-09T20:32:30.227Z,39.64
2022-08-09T20:34:57.976Z,39.28
2022-08-09T20:37:37.890Z,39.54
2022-08-09T20:40:27.217Z,38.72
2022-08-09T20:43:19.012Z,39.68
2022-08-09T20:46:00.318Z,39.53
2022-08-09T20:48:38.229Z,38.61
2022-08-09T20:51:07.001Z,38.14
2022-08-09T20:53:38.547Z,37.33
2022-08-09T20:56:20.397Z,36.81
2022-08-09T20:58:54.560Z,35.89
2022-08-09T21:01:35.267Z,35.86
2022-08-09T21:05:52.071Z,36.80
2022-08-09T21:07:11.998Z,36.43
2022-08-09T21:09:45.751Z,36.29
2022-08-09T21:12:32.286Z,36.17
2022-08-09T21:15:13.074Z,36.13
2022-08-09T21:18:22.214Z,36.42
2022-08-09T21:20:30.023Z,37.05
2022-08-09T21:22:59.454Z,37.16
2022-08-09T21:25:56.197Z,37.15
2022-08-09T21:28:36.278Z,36.60
2022-08-09T21:31:17.499Z,37.02
2022-08-09T21:33:52.831Z,37.59
2022-08-09T21:36:25.962Z,37.65
2022-08-09T21:38:57.831Z,36.43
2022-08-09T21:42:04.007Z,35.82
2022-08-09T21:44:33.140Z,36.76
2022-08-09T21:47:07.370Z,36.68
2022-08-09T21:49:39.638Z,37.40
2022-08-09T21:52:15.100Z,37.30
2022-08-09T21:54:50.563Z,36.96
2022-08-09T21:57:37.660Z,36.37
2022-08-09T22:00:14.707Z,36.84
2022-08-09T22:02:43.332Z,37.64
2022-08-09T22:05:23.296Z,37.88
2022-08-09T22:07:54.442Z,37.37
2022-08-09T22:10:23.103Z,39.09
2022-08-09T22:12:52.134Z,38.46
2022-08-09T22:15:20.701Z,38.68
2022-08-09T22:17:50.563Z,38.19
2022-08-09T22:20:21.791Z,38.59
2022-08-09T22:22:55.195Z,38.38
2022-08-09T22:26:05.336Z,39.28
2022-08-09T22:28:10.677Z,39.15
2022-08-09T22:30:41.795Z,39.20
2022-08-09T22:33:17.202Z,38.77
2022-08-09T22:36:02.082Z,39.58
2022-08-09T22:38:30.941Z,40.21
2022-08-09T22:40:59.019Z,40.70
2022-08-09T22:44:03.348Z,40.73
2022-08-09T22:48:12.117Z,40.73
2022-08-09T22:49:09.831Z,40.82
2022-08-09T22:51:39.387Z,40.90
2022-08-09T22:54:11.130Z,41.01
2022-08-09T22:56:41.545Z,41.49
2022-08-09T22:59:55.426Z,41.67
2022-08-09T23:01:57.525Z,42.65
2022-08-09T23:04:25.430Z,42.50
2022-08-09T23:07:14.082Z,42.45
2022-08-09T23:09:43.657Z,43.54
2022-08-09T23:12:11.551Z,43.27
2022-08-09T23:14:42.614Z,43.71
2022-08-09T23:17:11.173Z,44.34
2022-08-09T23:20:00.668Z,44.35
2022-08-09T23:22:26.336Z,46.21
2022-08-09T23:24:53.675Z,47.16
2022-08-09T23:27:21.022Z,48.06
2022-08-09T23:29:48.283Z,48.55
2022-08-09T23:32:15.729Z,47.77
2022-08-09T23:34:43.107Z,49.21
2022-08-09T23:37:10.391Z,49.90
2022-08-09T23:39:37.898Z,50.94
2022-08-09T23:42:05.452Z,50.47
2022-08-09T23:44:32.925Z,50.88
2022-08-09T23:47:00.481Z,50.65
2022-08-09T23:49:27.814Z,51.29
2022-08-09T23:51:55.587Z,51.52
2022-08-09T23:54:26.490Z,52.19
2022-08-09T23:56:56.124Z,52.88
2022-08-09T23:59:46.308Z,52.64
